JHB123 GQNO-GABS
Flight info
| Callsign | JHB123 |
|---|---|
| Flight time | N/A |
| Altitude | FL350 |
| Route | KETAS UA600 TOBAS TOBA5D |
| Aircraft | A306/H-VGDW/C |
Departure
| Time | 2026-04-25 23:16 |
|---|---|
| Airport | Nouakchott–Oumtounsy International Airport (GQNO) |
Arrival
| Time | N/A |
|---|---|
| Airport | Modibo Keita International Airport (GABS) |
| Time | Latitude | Longitude | Altitude | Speed | Heading |
|---|---|---|---|---|---|
| 2026-04-25 22:52 | 18.30697 | -15.96325 | 20 ft | 0 kts | 60° |
| 2026-04-25 23:06 | 18.30696 | -15.96326 | 21 ft | 1 kts | 60° |
| 2026-04-25 23:06 | 18.30689 | -15.96339 | 21 ft | 2 kts | 60° |
| 2026-04-25 23:06 | 18.30682 | -15.96353 | 20 ft | 2 kts | 60° |
| 2026-04-25 23:07 | 18.30674 | -15.96366 | 21 ft | 2 kts | 60° |
| 2026-04-25 23:07 | 18.30667 | -15.96380 | 21 ft | 2 kts | 60° |
| 2026-04-25 23:07 | 18.30659 | -15.96394 | 21 ft | 2 kts | 60° |
| 2026-04-25 23:07 | 18.30653 | -15.96408 | 21 ft | 2 kts | 80° |
| 2026-04-25 23:08 | 18.30653 | -15.96424 | 20 ft | 2 kts | 103° |
| 2026-04-25 23:08 | 18.30659 | -15.96438 | 21 ft | 2 kts | 127° |
| 2026-04-25 23:08 | 18.30670 | -15.96450 | 21 ft | 2 kts | 150° |
| 2026-04-25 23:08 | 18.30680 | -15.96456 | 21 ft | 0 kts | 149° |
| 2026-04-25 23:09 | 18.30683 | -15.96457 | 21 ft | 0 kts | 149° |
| 2026-04-25 23:11 | 18.30669 | -15.96448 | 20 ft | 5 kts | 149° |
| 2026-04-25 23:11 | 18.30629 | -15.96432 | 20 ft | 6 kts | 187° |
| 2026-04-25 23:11 | 18.30598 | -15.96466 | 20 ft | 8 kts | 228° |
| 2026-04-25 23:11 | 18.30516 | -15.96468 | 20 ft | 16 kts | 151° |
| 2026-04-25 23:12 | 18.30419 | -15.96406 | 20 ft | 17 kts | 149° |
| 2026-04-25 23:12 | 18.30315 | -15.96343 | 20 ft | 18 kts | 150° |
| 2026-04-25 23:12 | 18.30204 | -15.96275 | 20 ft | 19 kts | 150° |
| 2026-04-25 23:12 | 18.30086 | -15.96205 | 20 ft | 20 kts | 150° |
| 2026-04-25 23:13 | 18.29956 | -15.96125 | 20 ft | 24 kts | 149° |
| 2026-04-25 23:13 | 18.29814 | -15.96035 | 20 ft | 24 kts | 149° |
| 2026-04-25 23:13 | 18.29668 | -15.95949 | 20 ft | 24 kts | 151° |
| 2026-04-25 23:13 | 18.29519 | -15.95857 | 20 ft | 25 kts | 149° |
| 2026-04-25 23:14 | 18.29370 | -15.95767 | 20 ft | 25 kts | 151° |
| 2026-04-25 23:14 | 18.29264 | -15.95702 | 20 ft | 12 kts | 149° |
| 2026-04-25 23:14 | 18.29189 | -15.95680 | 20 ft | 12 kts | 210° |
| 2026-04-25 23:14 | 18.29145 | -15.95752 | 20 ft | 12 kts | 242° |
| 2026-04-25 23:15 | 18.29138 | -15.95830 | 20 ft | 12 kts | 310° |
| 2026-04-25 23:15 | 18.29254 | -15.95903 | 21 ft | 35 kts | 327° |
| 2026-04-25 23:15 | 18.29637 | -15.96138 | 21 ft | 97 kts | 329° |
| 2026-04-25 23:15 | 18.30403 | -15.96611 | 25 ft | 157 kts | 329° |
| 2026-04-25 23:16 | 18.31346 | -15.97195 | 647 ft | 156 kts | 329° |
| 2026-04-25 23:16 | 18.32276 | -15.97760 | 1252 ft | 159 kts | 329° |
| 2026-04-25 23:16 | 18.33223 | -15.98320 | 1913 ft | 160 kts | 330° |
| 2026-04-25 23:16 | 18.34248 | -15.98874 | 2270 ft | 176 kts | 338° |
| 2026-04-25 23:17 | 18.35559 | -15.98937 | 2469 ft | 206 kts | 8° |
| 2026-04-25 23:17 | 18.36883 | -15.98202 | 2793 ft | 234 kts | 43° |
| 2026-04-25 23:17 | 18.37724 | -15.96673 | 3314 ft | 257 kts | 75° |
| 2026-04-25 23:17 | 18.37756 | -15.94761 | 3937 ft | 273 kts | 104° |
| 2026-04-25 23:18 | 18.36902 | -15.92995 | 4764 ft | 277 kts | 134° |
| 2026-04-25 23:18 | 18.35376 | -15.91842 | 5689 ft | 274 kts | 161° |
| 2026-04-25 23:18 | 18.33558 | -15.91383 | 6641 ft | 273 kts | 173° |
| 2026-04-25 23:18 | 18.31683 | -15.91086 | 7566 ft | 275 kts | 174° |
| 2026-04-25 23:19 | 18.29797 | -15.90886 | 8460 ft | 276 kts | 187° |
| 2026-04-25 23:19 | 18.27978 | -15.91391 | 9353 ft | 275 kts | 200° |
| 2026-04-25 23:19 | 18.26172 | -15.92016 | 10148 ft | 281 kts | 196° |
| 2026-04-25 23:19 | 18.24249 | -15.92537 | 10690 ft | 296 kts | 192° |
| 2026-04-25 23:20 | 18.22171 | -15.92967 | 11074 ft | 316 kts | 190° |
| 2026-04-25 23:20 | 18.19931 | -15.93345 | 11417 ft | 337 kts | 188° |
| 2026-04-25 23:20 | 18.17544 | -15.93697 | 11757 ft | 358 kts | 187° |
| 2026-04-25 23:20 | 18.15024 | -15.94045 | 12344 ft | 370 kts | 187° |
| 2026-04-25 23:21 | 18.12483 | -15.94290 | 13213 ft | 373 kts | 178° |
| 2026-04-25 23:21 | 18.09971 | -15.93681 | 14111 ft | 375 kts | 156° |
| 2026-04-25 23:21 | 18.07831 | -15.92149 | 14937 ft | 380 kts | 140° |
| 2026-04-25 23:21 | 18.06053 | -15.90092 | 15678 ft | 386 kts | 131° |
| 2026-04-25 23:22 | 18.04480 | -15.87819 | 16340 ft | 393 kts | 128° |
| 2026-04-25 23:22 | 18.02946 | -15.85432 | 17002 ft | 399 kts | 127° |
| 2026-04-25 23:22 | 18.01401 | -15.83011 | 17670 ft | 403 kts | 127° |
| 2026-04-25 23:23 | 17.98225 | -15.78120 | 18971 ft | 411 kts | 128° |
| 2026-04-25 23:23 | 17.96603 | -15.75645 | 19580 ft | 416 kts | 129° |
| 2026-04-25 23:23 | 17.94960 | -15.73142 | 20170 ft | 421 kts | 129° |
| 2026-04-25 23:23 | 17.93294 | -15.70605 | 20761 ft | 426 kts | 129° |
| 2026-04-25 23:24 | 17.91611 | -15.68041 | 21349 ft | 431 kts | 129° |
| 2026-04-25 23:24 | 17.89911 | -15.65451 | 21921 ft | 436 kts | 129° |
| 2026-04-25 23:24 | 17.88189 | -15.62827 | 22510 ft | 440 kts | 129° |
| 2026-04-25 23:24 | 17.86450 | -15.60180 | 23096 ft | 444 kts | 130° |
| 2026-04-25 23:25 | 17.84696 | -15.57512 | 23629 ft | 449 kts | 130° |
| 2026-04-25 23:25 | 17.82907 | -15.54792 | 24143 ft | 454 kts | 130° |
| 2026-04-25 23:25 | 17.81110 | -15.52060 | 24654 ft | 459 kts | 130° |
| 2026-04-25 23:25 | 17.79295 | -15.49302 | 25153 ft | 464 kts | 130° |
| 2026-04-25 23:26 | 17.77468 | -15.46526 | 25626 ft | 469 kts | 130° |
| 2026-04-25 23:26 | 17.75600 | -15.43689 | 26085 ft | 474 kts | 130° |
| 2026-04-25 23:26 | 17.73735 | -15.40859 | 26559 ft | 480 kts | 130° |
| 2026-04-25 23:26 | 17.71833 | -15.37972 | 27134 ft | 483 kts | 130° |
| 2026-04-25 23:27 | 17.69928 | -15.35081 | 27724 ft | 485 kts | 130° |
| 2026-04-25 23:27 | 17.68016 | -15.32181 | 28310 ft | 487 kts | 131° |
| 2026-04-25 23:27 | 17.66148 | -15.29349 | 28804 ft | 489 kts | 131° |
| 2026-04-25 23:27 | 17.64220 | -15.26432 | 29326 ft | 490 kts | 131° |
| 2026-04-25 23:28 | 17.62267 | -15.23490 | 29824 ft | 492 kts | 131° |
| 2026-04-25 23:28 | 17.60337 | -15.20579 | 30304 ft | 492 kts | 131° |
| 2026-04-25 23:28 | 17.58377 | -15.17617 | 30744 ft | 493 kts | 131° |
| 2026-04-25 23:28 | 17.56420 | -15.14658 | 31152 ft | 494 kts | 131° |
| 2026-04-25 23:29 | 17.54467 | -15.11705 | 31538 ft | 496 kts | 131° |
| 2026-04-25 23:29 | 17.52511 | -15.08748 | 31918 ft | 496 kts | 131° |
| 2026-04-25 23:29 | 17.50551 | -15.05789 | 32300 ft | 497 kts | 131° |
| 2026-04-25 23:29 | 17.48592 | -15.02830 | 32675 ft | 496 kts | 131° |
| 2026-04-25 23:30 | 17.46633 | -14.99876 | 33038 ft | 496 kts | 131° |
| 2026-04-25 23:30 | 17.44675 | -14.96921 | 33387 ft | 495 kts | 131° |
| 2026-04-25 23:30 | 17.42719 | -14.93973 | 33723 ft | 495 kts | 131° |
| 2026-04-25 23:30 | 17.40767 | -14.91032 | 34050 ft | 493 kts | 131° |
| 2026-04-25 23:31 | 17.38817 | -14.88093 | 34365 ft | 491 kts | 131° |
| 2026-04-25 23:31 | 17.36867 | -14.85157 | 34647 ft | 489 kts | 131° |
| 2026-04-25 23:31 | 17.34950 | -14.82273 | 34861 ft | 488 kts | 131° |
| 2026-04-25 23:32 | 17.31068 | -14.76443 | 34888 ft | 492 kts | 131° |
| 2026-04-25 23:32 | 17.27178 | -14.70596 | 34886 ft | 491 kts | 131° |
| 2026-04-25 23:33 | 17.23281 | -14.64743 | 34886 ft | 490 kts | 131° |
| 2026-04-25 23:33 | 17.19394 | -14.58921 | 34887 ft | 490 kts | 131° |
| 2026-04-25 23:34 | 17.15495 | -14.53102 | 34890 ft | 490 kts | 131° |
| 2026-04-25 23:34 | 17.11619 | -14.47300 | 34894 ft | 490 kts | 131° |
| 2026-04-25 23:35 | 17.07727 | -14.41477 | 34898 ft | 491 kts | 131° |
| 2026-04-25 23:35 | 17.03825 | -14.35647 | 34902 ft | 492 kts | 131° |
| 2026-04-25 23:36 | 16.99918 | -14.29810 | 34879 ft | 491 kts | 131° |
| 2026-04-25 23:36 | 16.95998 | -14.23960 | 34879 ft | 492 kts | 130° |
| 2026-04-25 23:37 | 16.92096 | -14.18143 | 34883 ft | 492 kts | 130° |
| 2026-04-25 23:37 | 16.88167 | -14.12291 | 34887 ft | 492 kts | 130° |
| 2026-04-25 23:38 | 16.84263 | -14.06485 | 34886 ft | 492 kts | 130° |
| 2026-04-25 23:38 | 16.80317 | -14.00635 | 34885 ft | 492 kts | 130° |
| 2026-04-25 23:39 | 16.76412 | -13.94834 | 34885 ft | 492 kts | 130° |
| 2026-04-25 23:39 | 16.72491 | -13.89010 | 34887 ft | 492 kts | 130° |
| 2026-04-25 23:40 | 16.68570 | -13.83193 | 34886 ft | 492 kts | 130° |
| 2026-04-25 23:40 | 16.64635 | -13.77361 | 34886 ft | 492 kts | 130° |
| 2026-04-25 23:41 | 16.60710 | -13.71549 | 34882 ft | 492 kts | 130° |
| 2026-04-25 23:41 | 16.56781 | -13.65735 | 34869 ft | 493 kts | 130° |
| 2026-04-25 23:42 | 16.52858 | -13.59935 | 34847 ft | 493 kts | 130° |
| 2026-04-25 23:42 | 16.48906 | -13.54096 | 34825 ft | 493 kts | 130° |
| 2026-04-25 23:43 | 16.44981 | -13.48302 | 34811 ft | 493 kts | 130° |
| 2026-04-25 23:43 | 16.41024 | -13.42471 | 34805 ft | 493 kts | 130° |
| 2026-04-25 23:44 | 16.37067 | -13.36661 | 34804 ft | 493 kts | 130° |
| 2026-04-25 23:44 | 16.33121 | -13.30851 | 34772 ft | 493 kts | 130° |
| 2026-04-25 23:45 | 16.29190 | -13.25063 | 34775 ft | 493 kts | 130° |
| 2026-04-25 23:45 | 16.25242 | -13.19261 | 34776 ft | 493 kts | 130° |
| 2026-04-25 23:46 | 16.21284 | -13.13447 | 34777 ft | 492 kts | 130° |
| 2026-04-25 23:46 | 16.17367 | -13.07697 | 34778 ft | 489 kts | 130° |
| 2026-04-25 23:47 | 16.13457 | -13.01963 | 34776 ft | 487 kts | 130° |
| 2026-04-25 23:47 | 16.09552 | -12.96242 | 34778 ft | 485 kts | 130° |
| 2026-04-25 23:48 | 16.05659 | -12.90542 | 34779 ft | 485 kts | 130° |
| 2026-04-25 23:48 | 16.01761 | -12.84840 | 34778 ft | 486 kts | 130° |
| 2026-04-25 23:49 | 15.97848 | -12.79120 | 34777 ft | 486 kts | 130° |
| 2026-04-25 23:49 | 15.93962 | -12.73443 | 34781 ft | 486 kts | 130° |
| 2026-04-25 23:50 | 15.90060 | -12.67747 | 34777 ft | 485 kts | 130° |
| 2026-04-25 23:50 | 15.86147 | -12.62040 | 34781 ft | 486 kts | 130° |
| 2026-04-25 23:51 | 15.82245 | -12.56353 | 34783 ft | 485 kts | 130° |
| 2026-04-25 23:51 | 15.78327 | -12.50648 | 34787 ft | 486 kts | 130° |
| 2026-04-25 23:52 | 15.74417 | -12.44958 | 34790 ft | 486 kts | 130° |
| 2026-04-25 23:52 | 15.70512 | -12.39280 | 34794 ft | 485 kts | 130° |
| 2026-04-25 23:53 | 15.66612 | -12.33614 | 34787 ft | 485 kts | 130° |
| 2026-04-25 23:53 | 15.62692 | -12.27920 | 34776 ft | 485 kts | 130° |
| 2026-04-25 23:54 | 15.58789 | -12.22273 | 34777 ft | 485 kts | 130° |
| 2026-04-25 23:54 | 15.54861 | -12.16614 | 34773 ft | 485 kts | 130° |
| 2026-04-25 23:55 | 15.50947 | -12.10947 | 34778 ft | 485 kts | 130° |
| 2026-04-25 23:55 | 15.47028 | -12.05273 | 34778 ft | 485 kts | 130° |
| 2026-04-25 23:56 | 15.43099 | -11.99594 | 34779 ft | 485 kts | 130° |
| 2026-04-25 23:56 | 15.39186 | -11.93942 | 34777 ft | 485 kts | 130° |
| 2026-04-25 23:57 | 15.35251 | -11.88262 | 34777 ft | 485 kts | 130° |
| 2026-04-25 23:57 | 15.31306 | -11.82571 | 34779 ft | 485 kts | 130° |
| 2026-04-25 23:58 | 15.27396 | -11.76945 | 34777 ft | 484 kts | 130° |
| 2026-04-25 23:58 | 15.23477 | -11.71301 | 34780 ft | 485 kts | 130° |
| 2026-04-25 23:59 | 15.19555 | -11.65651 | 34779 ft | 485 kts | 130° |
| 2026-04-25 23:59 | 15.15636 | -11.60009 | 34779 ft | 485 kts | 130° |
| 2026-04-26 00:00 | 15.11717 | -11.54373 | 34778 ft | 484 kts | 130° |
| 2026-04-26 00:00 | 15.07797 | -11.48740 | 34780 ft | 484 kts | 130° |
| 2026-04-26 00:01 | 15.03872 | -11.43104 | 34783 ft | 485 kts | 130° |
| 2026-04-26 00:01 | 14.99943 | -11.37465 | 34785 ft | 483 kts | 130° |
| 2026-04-26 00:02 | 14.96052 | -11.31882 | 34771 ft | 478 kts | 130° |
| 2026-04-26 00:02 | 14.92186 | -11.26342 | 34775 ft | 475 kts | 129° |
| 2026-04-26 00:03 | 14.88343 | -11.20840 | 34779 ft | 473 kts | 129° |
| 2026-04-26 00:03 | 14.84498 | -11.15337 | 34778 ft | 472 kts | 129° |
| 2026-04-26 00:04 | 14.80666 | -11.09859 | 34779 ft | 472 kts | 129° |
| 2026-04-26 00:04 | 14.76844 | -11.04398 | 34778 ft | 473 kts | 129° |
| 2026-04-26 00:05 | 14.73002 | -10.98918 | 34776 ft | 473 kts | 129° |
| 2026-04-26 00:05 | 14.69140 | -10.93432 | 34776 ft | 473 kts | 129° |
| 2026-04-26 00:06 | 14.65298 | -10.87957 | 34776 ft | 472 kts | 129° |
| 2026-04-26 00:06 | 14.61458 | -10.82486 | 34777 ft | 472 kts | 129° |
| 2026-04-26 00:07 | 14.57633 | -10.77042 | 34778 ft | 472 kts | 129° |
| 2026-04-26 00:07 | 14.53790 | -10.71577 | 34777 ft | 472 kts | 129° |
| 2026-04-26 00:08 | 14.49947 | -10.66115 | 34779 ft | 472 kts | 129° |
| 2026-04-26 00:08 | 14.46090 | -10.60636 | 34778 ft | 472 kts | 129° |
| 2026-04-26 00:09 | 14.42239 | -10.55170 | 34778 ft | 472 kts | 129° |
| 2026-04-26 00:09 | 14.38402 | -10.49728 | 34778 ft | 472 kts | 129° |
| 2026-04-26 00:10 | 14.34554 | -10.44273 | 34778 ft | 472 kts | 129° |
| 2026-04-26 00:10 | 14.30688 | -10.38796 | 34778 ft | 472 kts | 129° |
| 2026-04-26 00:11 | 14.26835 | -10.33342 | 34772 ft | 472 kts | 129° |
| 2026-04-26 00:11 | 14.22993 | -10.27906 | 34776 ft | 472 kts | 129° |